CSAV Lonquen — A8OT2 — position and weather

sailwx.info

Track history (hours):
 
Tides and Currents Weather Stations Pressure Air Temp Water Temp Dewpoint Dewpoint Depression Visibility Wind Speed Wind Dir Waves Ship Positions

CSAV Lonquen

Last reported at 2017-Nov-18 19:44 UTC. Time now 2017-Nov-24 13:08 UTC.
Position N 01°15' E 104°03'.

Length 261 m; draft 10.2 m.

Type: Ship (hazmat cat D). MMSI: 636018108.

Date/timePositionNaut miles runAvg speedWind from/ knotsBaromVisibWave heightAir tempDewpointWater temp
2017-Nov-18 19:44N 01°15' E 104°03'314.8
2017-Nov-18 19:30N 01°15' E 103°59'715.0
2017-Nov-18 19:01N 01°12' E 103°53'5 9.2
2017-Nov-18 18:30N 01°13' E 103°48'3 5.6
2017-Nov-18 18:00N 01°16' E 103°47'0 0.2
2017-Nov-18 17:30N 01°16' E 103°47'0 0.0
2017-Nov-18 16:57N 01°16' E 103°47'0 0.0
2017-Nov-18 16:30N 01°16' E 103°47'0 0.0
2017-Nov-18 15:57N 01°16' E 103°47'0 0.0
2017-Nov-18 15:30N 01°16' E 103°47'0 0.0
2017-Nov-18 14:54N 01°16' E 103°47'0 0.0
2017-Nov-18 14:27N 01°16' E 103°47'0 0.0
2017-Nov-18 13:51N 01°16' E 103°47'0 0.0
2017-Nov-18 13:30N 01°16' E 103°47'0 0.0
2017-Nov-18 12:51N 01°16' E 103°47'0 0.0
2017-Nov-18 12:30N 01°16' E 103°47'0 0.0
2017-Nov-18 11:54N 01°16' E 103°47'0 0.0
2017-Nov-18 11:24N 01°16' E 103°47'0 0.0
2017-Nov-18 10:54N 01°16' E 103°47'0 0.0
2017-Nov-18 10:30N 01°16' E 103°47'0 0.0
2017-Nov-18 10:00N 01°16' E 103°47'0 0.0
2017-Nov-18 09:24N 01°16' E 103°47'0 0.0
2017-Nov-18 08:57N 01°16' E 103°47'0 0.0
2017-Nov-18 08:30N 01°16' E 103°47'0 0.0
2017-Nov-18 07:54N 01°16' E 103°47'0 0.2
2017-Nov-18 07:30N 01°16' E 103°47'1 1.0
2017-Nov-18 07:01N 01°15' E 103°47'4 8.6
2017-Nov-18 06:30N 01°14' E 103°43'612.3
2017-Nov-18 06:00N 01°12' E 103°37'3 5.7
2017-Nov-18 05:30N 01°12' E 103°35'4 6.9
2017-Nov-18 04:59N 01°10' E 103°32'1 1.1
2017-Nov-18 04:30N 01°10' E 103°32'1 1.0
2017-Nov-18 03:59N 01°10' E 103°31'2 4.2
2017-Nov-18 03:30N 01°10' E 103°29'4 7.9
2017-Nov-18 03:00N 01°12' E 103°25'  
Track history (hours):
 
Tides and Currents Weather Stations Pressure Air Temp Water Temp Dewpoint Dewpoint Depression Visibility Wind Speed Wind Dir Waves Ship Positions

CSAV Lonquen

Last reported at 2017-Nov-18 19:44 UTC. Time now 2017-Nov-24 13:08 UTC.
Position N 01°15' E 104°03'.

Length 261 m; draft 10.2 m.

Type: Ship (hazmat cat D). MMSI: 636018108.

Date/timePositionNaut miles runAvg speedWind from/ knotsBaromVisibWave heightAir tempDewpointWater temp
2017-Nov-18 19:44N 01°15' E 104°03'314.8
2017-Nov-18 19:30N 01°15' E 103°59'715.0
2017-Nov-18 19:01N 01°12' E 103°53'5 9.2
2017-Nov-18 18:30N 01°13' E 103°48'3 5.6
2017-Nov-18 18:00N 01°16' E 103°47'0 0.2
2017-Nov-18 17:30N 01°16' E 103°47'0 0.0
2017-Nov-18 16:57N 01°16' E 103°47'0 0.0
2017-Nov-18 16:30N 01°16' E 103°47'0 0.0
2017-Nov-18 15:57N 01°16' E 103°47'0 0.0
2017-Nov-18 15:30N 01°16' E 103°47'0 0.0
2017-Nov-18 14:54N 01°16' E 103°47'0 0.0
2017-Nov-18 14:27N 01°16' E 103°47'0 0.0
2017-Nov-18 13:51N 01°16' E 103°47'0 0.0
2017-Nov-18 13:30N 01°16' E 103°47'0 0.0
2017-Nov-18 12:51N 01°16' E 103°47'0 0.0
2017-Nov-18 12:30N 01°16' E 103°47'0 0.0
2017-Nov-18 11:54N 01°16' E 103°47'0 0.0
2017-Nov-18 11:24N 01°16' E 103°47'0 0.0
2017-Nov-18 10:54N 01°16' E 103°47'0 0.0
2017-Nov-18 10:30N 01°16' E 103°47'0 0.0
2017-Nov-18 10:00N 01°16' E 103°47'0 0.0
2017-Nov-18 09:24N 01°16' E 103°47'0 0.0
2017-Nov-18 08:57N 01°16' E 103°47'0 0.0
2017-Nov-18 08:30N 01°16' E 103°47'0 0.0
2017-Nov-18 07:54N 01°16' E 103°47'0 0.2
2017-Nov-18 07:30N 01°16' E 103°47'1 1.0
2017-Nov-18 07:01N 01°15' E 103°47'4 8.6
2017-Nov-18 06:30N 01°14' E 103°43'612.3
2017-Nov-18 06:00N 01°12' E 103°37'3 5.7
2017-Nov-18 05:30N 01°12' E 103°35'4 6.9
2017-Nov-18 04:59N 01°10' E 103°32'1 1.1
2017-Nov-18 04:30N 01°10' E 103°32'1 1.0
2017-Nov-18 03:59N 01°10' E 103°31'2 4.2
2017-Nov-18 03:30N 01°10' E 103°29'4 7.9
2017-Nov-18 03:00N 01°12' E 103°25'  

Dump ship's entire track history